sensor_id;sensor_type;location;lat;lon;timestamp;temperature;humidity
19920;DHT22;10122;50.074;19.920;2022-07-21T00:02:06;26.30;91.70
19920;DHT22;10122;50.074;19.920;2022-07-21T00:04:32;26.20;91.90
19920;DHT22;10122;50.074;19.920;2022-07-21T00:06:58;26.10;92.10
19920;DHT22;10122;50.074;19.920;2022-07-21T00:09:23;26.10;92.40
19920;DHT22;10122;50.074;19.920;2022-07-21T00:11:49;26.10;92.70
19920;DHT22;10122;50.074;19.920;2022-07-21T00:14:15;26.00;92.90
19920;DHT22;10122;50.074;19.920;2022-07-21T00:16:41;26.00;93.10
19920;DHT22;10122;50.074;19.920;2022-07-21T00:19:08;25.90;93.50
19920;DHT22;10122;50.074;19.920;2022-07-21T00:21:34;25.90;93.40
19920;DHT22;10122;50.074;19.920;2022-07-21T00:24:00;25.90;93.50
19920;DHT22;10122;50.074;19.920;2022-07-21T00:26:25;25.80;93.50
19920;DHT22;10122;50.074;19.920;2022-07-21T00:28:51;25.80;93.80
19920;DHT22;10122;50.074;19.920;2022-07-21T00:31:17;25.80;94.50
19920;DHT22;10122;50.074;19.920;2022-07-21T00:33:42;25.70;94.70
19920;DHT22;10122;50.074;19.920;2022-07-21T00:36:08;25.70;94.60
19920;DHT22;10122;50.074;19.920;2022-07-21T00:38:34;25.60;94.90
19920;DHT22;10122;50.074;19.920;2022-07-21T00:40:59;25.60;94.90
19920;DHT22;10122;50.074;19.920;2022-07-21T00:43:25;25.60;95.00
19920;DHT22;10122;50.074;19.920;2022-07-21T00:45:55;25.50;95.30
19920;DHT22;10122;50.074;19.920;2022-07-21T00:48:21;25.50;95.60
19920;DHT22;10122;50.074;19.920;2022-07-21T00:50:47;25.40;95.80
19920;DHT22;10122;50.074;19.920;2022-07-21T00:53:13;25.40;95.90
19920;DHT22;10122;50.074;19.920;2022-07-21T00:55:42;25.30;96.00
19920;DHT22;10122;50.074;19.920;2022-07-21T00:58:08;25.30;96.60
19920;DHT22;10122;50.074;19.920;2022-07-21T01:00:35;25.20;96.60
19920;DHT22;10122;50.074;19.920;2022-07-21T01:03:01;25.20;96.70
19920;DHT22;10122;50.074;19.920;2022-07-21T01:05:26;25.10;96.80
19920;DHT22;10122;50.074;19.920;2022-07-21T01:07:54;25.10;97.10
19920;DHT22;10122;50.074;19.920;2022-07-21T01:10:22;25.10;97.20
19920;DHT22;10122;50.074;19.920;2022-07-21T01:12:49;25.00;97.30
19920;DHT22;10122;50.074;19.920;2022-07-21T01:15:16;25.00;97.70
19920;DHT22;10122;50.074;19.920;2022-07-21T01:17:43;24.90;98.30
19920;DHT22;10122;50.074;19.920;2022-07-21T01:20:12;24.90;98.50
19920;DHT22;10122;50.074;19.920;2022-07-21T01:22:41;24.80;98.70
19920;DHT22;10122;50.074;19.920;2022-07-21T01:25:07;24.80;98.90
19920;DHT22;10122;50.074;19.920;2022-07-21T01:27:33;24.70;99.60
19920;DHT22;10122;50.074;19.920;2022-07-21T01:29:59;24.70;99.90
19920;DHT22;10122;50.074;19.920;2022-07-21T01:32:25;24.60;99.90
19920;DHT22;10122;50.074;19.920;2022-07-21T01:34:51;24.60;99.90
19920;DHT22;10122;50.074;19.920;2022-07-21T01:37:22;24.60;99.90
19920;DHT22;10122;50.074;19.920;2022-07-21T01:39:49;24.50;99.90
19920;DHT22;10122;50.074;19.920;2022-07-21T01:42:33;24.40;99.90
19920;DHT22;10122;50.074;19.920;2022-07-21T01:44:59;24.40;99.90
19920;DHT22;10122;50.074;19.920;2022-07-21T01:47:24;24.40;99.90
19920;DHT22;10122;50.074;19.920;2022-07-21T01:49:50;24.40;99.90
19920;DHT22;10122;50.074;19.920;2022-07-21T01:52:16;24.30;99.90
19920;DHT22;10122;50.074;19.920;2022-07-21T01:54:41;24.30;99.90
19920;DHT22;10122;50.074;19.920;2022-07-21T01:57:07;24.30;99.90
19920;DHT22;10122;50.074;19.920;2022-07-21T01:59:33;24.20;99.90
19920;DHT22;10122;50.074;19.920;2022-07-21T02:01:58;24.20;99.90
19920;DHT22;10122;50.074;19.920;2022-07-21T02:04:24;24.20;99.90
19920;DHT22;10122;50.074;19.920;2022-07-21T02:06:51;24.20;99.90
19920;DHT22;10122;50.074;19.920;2022-07-21T02:09:17;24.20;99.90
19920;DHT22;10122;50.074;19.920;2022-07-21T02:11:42;24.10;99.90
19920;DHT22;10122;50.074;19.920;2022-07-21T02:14:08;23.90;99.90
19920;DHT22;10122;50.074;19.920;2022-07-21T02:16:33;23.50;99.90
19920;DHT22;10122;50.074;19.920;2022-07-21T02:19:00;23.50;99.90
19920;DHT22;10122;50.074;19.920;2022-07-21T02:21:25;23.30;99.90
19920;DHT22;10122;50.074;19.920;2022-07-21T02:23:51;23.20;99.90
19920;DHT22;10122;50.074;19.920;2022-07-21T02:26:17;23.10;99.90
19920;DHT22;10122;50.074;19.920;2022-07-21T02:28:43;23.00;99.90
19920;DHT22;10122;50.074;19.920;2022-07-21T02:31:09;23.00;99.90
19920;DHT22;10122;50.074;19.920;2022-07-21T02:33:35;23.00;99.90
19920;DHT22;10122;50.074;19.920;2022-07-21T02:36:01;23.00;99.90
19920;DHT22;10122;50.074;19.920;2022-07-21T02:38:26;23.10;99.90
19920;DHT22;10122;50.074;19.920;2022-07-21T02:40:52;23.20;99.90
19920;DHT22;10122;50.074;19.920;2022-07-21T02:43:18;23.20;99.90
19920;DHT22;10122;50.074;19.920;2022-07-21T02:45:44;23.30;99.90
19920;DHT22;10122;50.074;19.920;2022-07-21T02:48:11;23.30;99.90
19920;DHT22;10122;50.074;19.920;2022-07-21T02:50:39;23.20;99.90
19920;DHT22;10122;50.074;19.920;2022-07-21T02:53:08;23.20;99.90
19920;DHT22;10122;50.074;19.920;2022-07-21T02:55:35;23.20;99.90
19920;DHT22;10122;50.074;19.920;2022-07-21T02:58:04;23.20;99.90
19920;DHT22;10122;50.074;19.920;2022-07-21T03:00:30;23.20;99.90
19920;DHT22;10122;50.074;19.920;2022-07-21T03:02:56;23.20;99.90
19920;DHT22;10122;50.074;19.920;2022-07-21T03:05:21;23.10;99.90
19920;DHT22;10122;50.074;19.920;2022-07-21T03:07:47;23.00;99.90
19920;DHT22;10122;50.074;19.920;2022-07-21T03:10:13;22.90;99.90
19920;DHT22;10122;50.074;19.920;2022-07-21T03:12:38;22.80;99.90
19920;DHT22;10122;50.074;19.920;2022-07-21T03:15:04;22.80;99.90
19920;DHT22;10122;50.074;19.920;2022-07-21T03:17:30;22.70;99.90
19920;DHT22;10122;50.074;19.920;2022-07-21T03:19:55;22.70;99.90
19920;DHT22;10122;50.074;19.920;2022-07-21T03:22:21;22.60;99.90
19920;DHT22;10122;50.074;19.920;2022-07-21T03:24:47;22.60;99.90
19920;DHT22;10122;50.074;19.920;2022-07-21T03:27:12;22.60;99.90
19920;DHT22;10122;50.074;19.920;2022-07-21T03:29:38;22.70;99.90
19920;DHT22;10122;50.074;19.920;2022-07-21T03:32:04;22.70;99.90
19920;DHT22;10122;50.074;19.920;2022-07-21T03:34:30;22.70;99.90
19920;DHT22;10122;50.074;19.920;2022-07-21T03:36:55;22.70;99.90
19920;DHT22;10122;50.074;19.920;2022-07-21T03:39:21;22.70;99.90
19920;DHT22;10122;50.074;19.920;2022-07-21T03:41:47;22.80;99.90
19920;DHT22;10122;50.074;19.920;2022-07-21T03:44:13;22.70;99.90
19920;DHT22;10122;50.074;19.920;2022-07-21T03:46:39;22.60;99.90
19920;DHT22;10122;50.074;19.920;2022-07-21T03:49:05;22.50;99.90
19920;DHT22;10122;50.074;19.920;2022-07-21T03:51:30;22.50;99.90
19920;DHT22;10122;50.074;19.920;2022-07-21T03:53:56;22.40;99.90
19920;DHT22;10122;50.074;19.920;2022-07-21T03:56:23;22.30;99.90
19920;DHT22;10122;50.074;19.920;2022-07-21T03:58:49;22.30;99.90
19920;DHT22;10122;50.074;19.920;2022-07-21T04:01:15;22.30;99.90
19920;DHT22;10122;50.074;19.920;2022-07-21T04:03:40;22.20;99.90
19920;DHT22;10122;50.074;19.920;2022-07-21T04:06:06;22.10;99.90
19920;DHT22;10122;50.074;19.920;2022-07-21T04:08:36;21.70;99.90
19920;DHT22;10122;50.074;19.920;2022-07-21T04:11:01;21.40;99.90
19920;DHT22;10122;50.074;19.920;2022-07-21T04:13:27;21.10;99.90
19920;DHT22;10122;50.074;19.920;2022-07-21T04:15:53;20.90;99.90
19920;DHT22;10122;50.074;19.920;2022-07-21T04:18:18;20.80;99.90
19920;DHT22;10122;50.074;19.920;2022-07-21T04:20:44;20.80;99.90
19920;DHT22;10122;50.074;19.920;2022-07-21T04:23:10;20.80;99.90
19920;DHT22;10122;50.074;19.920;2022-07-21T04:25:35;20.80;99.90
19920;DHT22;10122;50.074;19.920;2022-07-21T04:28:04;20.80;99.90
19920;DHT22;10122;50.074;19.920;2022-07-21T04:30:29;20.90;99.90
19920;DHT22;10122;50.074;19.920;2022-07-21T04:32:55;20.90;99.90
19920;DHT22;10122;50.074;19.920;2022-07-21T04:35:21;20.90;99.90
19920;DHT22;10122;50.074;19.920;2022-07-21T04:37:48;20.90;99.90
19920;DHT22;10122;50.074;19.920;2022-07-21T04:40:14;20.90;99.90
19920;DHT22;10122;50.074;19.920;2022-07-21T04:42:40;21.10;99.90
19920;DHT22;10122;50.074;19.920;2022-07-21T04:45:08;21.20;99.90
19920;DHT22;10122;50.074;19.920;2022-07-21T04:47:42;21.30;99.90
19920;DHT22;10122;50.074;19.920;2022-07-21T04:50:09;21.40;99.90
19920;DHT22;10122;50.074;19.920;2022-07-21T04:52:35;21.40;99.90
19920;DHT22;10122;50.074;19.920;2022-07-21T04:55:01;21.50;99.90
19920;DHT22;10122;50.074;19.920;2022-07-21T04:57:26;22.00;99.90
19920;DHT22;10122;50.074;19.920;2022-07-21T04:59:52;22.20;99.90
19920;DHT22;10122;50.074;19.920;2022-07-21T05:02:18;22.20;99.90
19920;DHT22;10122;50.074;19.920;2022-07-21T05:04:43;22.10;99.90
19920;DHT22;10122;50.074;19.920;2022-07-21T05:07:09;22.20;99.90
19920;DHT22;10122;50.074;19.920;2022-07-21T05:09:35;22.30;99.90
19920;DHT22;10122;50.074;19.920;2022-07-21T05:12:00;22.50;99.90
19920;DHT22;10122;50.074;19.920;2022-07-21T05:14:26;22.50;99.90
19920;DHT22;10122;50.074;19.920;2022-07-21T05:16:52;22.20;99.90
19920;DHT22;10122;50.074;19.920;2022-07-21T05:19:18;22.00;99.90
19920;DHT22;10122;50.074;19.920;2022-07-21T05:21:43;21.80;99.90
19920;DHT22;10122;50.074;19.920;2022-07-21T05:24:10;21.90;99.90
19920;DHT22;10122;50.074;19.920;2022-07-21T05:26:36;22.00;99.90
19920;DHT22;10122;50.074;19.920;2022-07-21T05:29:02;22.00;99.90
19920;DHT22;10122;50.074;19.920;2022-07-21T05:31:28;22.00;99.90
19920;DHT22;10122;50.074;19.920;2022-07-21T05:33:54;21.90;99.90
19920;DHT22;10122;50.074;19.920;2022-07-21T05:36:19;22.10;99.90
19920;DHT22;10122;50.074;19.920;2022-07-21T05:38:46;22.00;99.90
19920;DHT22;10122;50.074;19.920;2022-07-21T05:41:11;22.20;99.90
19920;DHT22;10122;50.074;19.920;2022-07-21T05:43:37;22.20;99.90
19920;DHT22;10122;50.074;19.920;2022-07-21T05:46:03;22.10;99.90
19920;DHT22;10122;50.074;19.920;2022-07-21T05:48:28;22.20;99.90
19920;DHT22;10122;50.074;19.920;2022-07-21T05:50:54;22.30;99.90
19920;DHT22;10122;50.074;19.920;2022-07-21T05:53:20;22.40;99.90
19920;DHT22;10122;50.074;19.920;2022-07-21T05:55:46;22.50;99.90
19920;DHT22;10122;50.074;19.920;2022-07-21T05:58:11;22.60;99.90
19920;DHT22;10122;50.074;19.920;2022-07-21T06:00:37;22.90;99.90
19920;DHT22;10122;50.074;19.920;2022-07-21T06:03:03;23.00;99.90
19920;DHT22;10122;50.074;19.920;2022-07-21T06:05:28;23.30;99.90
19920;DHT22;10122;50.074;19.920;2022-07-21T06:07:54;23.40;99.90
19920;DHT22;10122;50.074;19.920;2022-07-21T06:10:20;23.50;99.90
19920;DHT22;10122;50.074;19.920;2022-07-21T06:12:45;23.90;99.90
19920;DHT22;10122;50.074;19.920;2022-07-21T06:15:12;24.60;99.90
19920;DHT22;10122;50.074;19.920;2022-07-21T06:17:43;25.30;99.90
19920;DHT22;10122;50.074;19.920;2022-07-21T06:20:09;26.10;99.90
19920;DHT22;10122;50.074;19.920;2022-07-21T06:22:36;26.50;99.90
19920;DHT22;10122;50.074;19.920;2022-07-21T06:25:03;27.10;99.90
19920;DHT22;10122;50.074;19.920;2022-07-21T06:27:29;27.60;98.60
19920;DHT22;10122;50.074;19.920;2022-07-21T06:29:57;28.20;95.30
19920;DHT22;10122;50.074;19.920;2022-07-21T06:32:25;28.40;93.60
19920;DHT22;10122;50.074;19.920;2022-07-21T06:34:50;28.80;91.70
19920;DHT22;10122;50.074;19.920;2022-07-21T06:37:16;29.00;90.70
19920;DHT22;10122;50.074;19.920;2022-07-21T06:39:42;29.30;88.70
19920;DHT22;10122;50.074;19.920;2022-07-21T06:42:08;29.50;86.50
19920;DHT22;10122;50.074;19.920;2022-07-21T06:44:34;29.90;84.20
19920;DHT22;10122;50.074;19.920;2022-07-21T06:47:00;30.20;81.90
19920;DHT22;10122;50.074;19.920;2022-07-21T06:49:32;30.50;78.60
19920;DHT22;10122;50.074;19.920;2022-07-21T06:51:58;30.80;77.40
19920;DHT22;10122;50.074;19.920;2022-07-21T06:54:24;30.80;75.90
19920;DHT22;10122;50.074;19.920;2022-07-21T06:56:49;30.40;77.20
19920;DHT22;10122;50.074;19.920;2022-07-21T06:59:15;30.70;77.00
19920;DHT22;10122;50.074;19.920;2022-07-21T07:01:41;31.40;74.90
19920;DHT22;10122;50.074;19.920;2022-07-21T07:04:07;31.90;72.30
19920;DHT22;10122;50.074;19.920;2022-07-21T07:06:33;32.60;69.60
19920;DHT22;10122;50.074;19.920;2022-07-21T07:08:59;32.50;67.30
19920;DHT22;10122;50.074;19.920;2022-07-21T07:11:24;32.00;67.10
19920;DHT22;10122;50.074;19.920;2022-07-21T07:13:50;31.70;68.80
19920;DHT22;10122;50.074;19.920;2022-07-21T07:16:16;31.80;69.20
19920;DHT22;10122;50.074;19.920;2022-07-21T07:18:41;32.10;69.20
19920;DHT22;10122;50.074;19.920;2022-07-21T07:21:07;32.60;67.60
19920;DHT22;10122;50.074;19.920;2022-07-21T07:23:33;32.90;67.80
19920;DHT22;10122;50.074;19.920;2022-07-21T07:25:58;33.60;66.10
19920;DHT22;10122;50.074;19.920;2022-07-21T07:28:24;33.90;67.90
19920;DHT22;10122;50.074;19.920;2022-07-21T07:30:50;34.30;65.00
19920;DHT22;10122;50.074;19.920;2022-07-21T07:33:15;34.10;61.60
19920;DHT22;10122;50.074;19.920;2022-07-21T07:35:41;34.40;64.80
19920;DHT22;10122;50.074;19.920;2022-07-21T07:38:07;34.30;64.20
19920;DHT22;10122;50.074;19.920;2022-07-21T07:40:32;34.30;60.60
19920;DHT22;10122;50.074;19.920;2022-07-21T07:42:58;34.60;61.80
19920;DHT22;10122;50.074;19.920;2022-07-21T07:45:25;35.20;61.60
19920;DHT22;10122;50.074;19.920;2022-07-21T07:47:51;35.70;58.40
19920;DHT22;10122;50.074;19.920;2022-07-21T07:50:17;35.60;58.60
19920;DHT22;10122;50.074;19.920;2022-07-21T07:52:44;35.30;58.00
19920;DHT22;10122;50.074;19.920;2022-07-21T07:55:10;35.20;58.40
19920;DHT22;10122;50.074;19.920;2022-07-21T07:57:40;35.70;57.20
19920;DHT22;10122;50.074;19.920;2022-07-21T08:00:16;36.00;57.50
19920;DHT22;10122;50.074;19.920;2022-07-21T08:02:42;36.20;55.10
19920;DHT22;10122;50.074;19.920;2022-07-21T08:05:08;35.70;54.50
19920;DHT22;10122;50.074;19.920;2022-07-21T08:07:38;35.00;56.30
19920;DHT22;10122;50.074;19.920;2022-07-21T08:10:06;35.50;56.40
19920;DHT22;10122;50.074;19.920;2022-07-21T08:12:32;36.30;54.10
19920;DHT22;10122;50.074;19.920;2022-07-21T08:14:57;37.10;53.00
19920;DHT22;10122;50.074;19.920;2022-07-21T08:17:23;37.50;52.30
19920;DHT22;10122;50.074;19.920;2022-07-21T08:19:49;37.80;51.90
19920;DHT22;10122;50.074;19.920;2022-07-21T08:22:14;38.00;51.10
19920;DHT22;10122;50.074;19.920;2022-07-21T08:24:40;37.70;50.90
19920;DHT22;10122;50.074;19.920;2022-07-21T08:27:06;37.10;51.30
19920;DHT22;10122;50.074;19.920;2022-07-21T08:29:31;37.30;52.50
19920;DHT22;10122;50.074;19.920;2022-07-21T08:31:57;37.40;50.90
19920;DHT22;10122;50.074;19.920;2022-07-21T08:34:23;37.70;50.00
19920;DHT22;10122;50.074;19.920;2022-07-21T08:36:48;38.10;49.80
19920;DHT22;10122;50.074;19.920;2022-07-21T08:39:14;38.20;49.70
19920;DHT22;10122;50.074;19.920;2022-07-21T08:41:40;38.30;48.70
19920;DHT22;10122;50.074;19.920;2022-07-21T08:44:06;38.40;49.70
19920;DHT22;10122;50.074;19.920;2022-07-21T08:46:37;38.20;49.30
19920;DHT22;10122;50.074;19.920;2022-07-21T08:49:03;38.60;48.50
19920;DHT22;10122;50.074;19.920;2022-07-21T08:51:36;38.30;48.50
19920;DHT22;10122;50.074;19.920;2022-07-21T08:54:03;37.30;49.30
19920;DHT22;10122;50.074;19.920;2022-07-21T08:56:29;37.10;50.30
19920;DHT22;10122;50.074;19.920;2022-07-21T08:58:54;37.50;49.80
19920;DHT22;10122;50.074;19.920;2022-07-21T09:01:20;37.70;49.20
19920;DHT22;10122;50.074;19.920;2022-07-21T09:03:52;37.80;48.80
19920;DHT22;10122;50.074;19.920;2022-07-21T09:06:19;37.50;49.00
19920;DHT22;10122;50.074;19.920;2022-07-21T09:08:51;37.40;48.50
19920;DHT22;10122;50.074;19.920;2022-07-21T09:11:24;36.70;50.10
19920;DHT22;10122;50.074;19.920;2022-07-21T09:14:12;36.60;49.70
19920;DHT22;10122;50.074;19.920;2022-07-21T09:16:40;36.30;51.20
19920;DHT22;10122;50.074;19.920;2022-07-21T09:19:06;36.50;50.70
19920;DHT22;10122;50.074;19.920;2022-07-21T09:21:34;36.10;51.40
19920;DHT22;10122;50.074;19.920;2022-07-21T09:24:13;36.10;52.10
19920;DHT22;10122;50.074;19.920;2022-07-21T09:32:13;34.80;52.60
19920;DHT22;10122;50.074;19.920;2022-07-21T09:34:39;34.70;53.20
19920;DHT22;10122;50.074;19.920;2022-07-21T09:37:07;34.10;54.60
19920;DHT22;10122;50.074;19.920;2022-07-21T09:44:45;33.80;55.50
19920;DHT22;10122;50.074;19.920;2022-07-21T09:47:14;33.80;57.50
19920;DHT22;10122;50.074;19.920;2022-07-21T09:49:40;34.00;56.00
19920;DHT22;10122;50.074;19.920;2022-07-21T09:52:22;33.60;55.80
19920;DHT22;10122;50.074;19.920;2022-07-21T09:54:49;33.00;56.90
19920;DHT22;10122;50.074;19.920;2022-07-21T09:57:19;33.00;57.60
19920;DHT22;10122;50.074;19.920;2022-07-21T09:59:46;33.30;56.90
19920;DHT22;10122;50.074;19.920;2022-07-21T10:04:42;33.30;56.10
19920;DHT22;10122;50.074;19.920;2022-07-21T10:07:08;33.40;55.40
19920;DHT22;10122;50.074;19.920;2022-07-21T10:09:34;33.40;54.50
19920;DHT22;10122;50.074;19.920;2022-07-21T10:12:00;32.80;55.50
19920;DHT22;10122;50.074;19.920;2022-07-21T10:14:26;32.60;56.00
19920;DHT22;10122;50.074;19.920;2022-07-21T10:16:52;32.40;55.70
19920;DHT22;10122;50.074;19.920;2022-07-21T10:19:29;32.40;58.20
19920;DHT22;10122;50.074;19.920;2022-07-21T10:24:53;32.90;58.60
19920;DHT22;10122;50.074;19.920;2022-07-21T10:27:19;32.90;57.80
19920;DHT22;10122;50.074;19.920;2022-07-21T10:32:16;32.70;57.70
19920;DHT22;10122;50.074;19.920;2022-07-21T10:34:42;32.30;56.60
19920;DHT22;10122;50.074;19.920;2022-07-21T10:37:10;32.20;59.70
19920;DHT22;10122;50.074;19.920;2022-07-21T10:39:38;32.20;58.40
19920;DHT22;10122;50.074;19.920;2022-07-21T10:42:15;32.10;59.80
19920;DHT22;10122;50.074;19.920;2022-07-21T10:44:45;32.20;57.20
19920;DHT22;10122;50.074;19.920;2022-07-21T10:47:13;32.20;61.00
19920;DHT22;10122;50.074;19.920;2022-07-21T10:49:47;32.20;58.60
19920;DHT22;10122;50.074;19.920;2022-07-21T10:57:43;32.20;58.50
19920;DHT22;10122;50.074;19.920;2022-07-21T11:02:47;32.30;58.00
19920;DHT22;10122;50.074;19.920;2022-07-21T11:05:13;32.30;58.40
19920;DHT22;10122;50.074;19.920;2022-07-21T11:10:33;32.20;59.90
19920;DHT22;10122;50.074;19.920;2022-07-21T11:13:00;32.10;60.50
19920;DHT22;10122;50.074;19.920;2022-07-21T11:18:18;31.60;60.00
19920;DHT22;10122;50.074;19.920;2022-07-21T11:20:59;31.70;59.80
19920;DHT22;10122;50.074;19.920;2022-07-21T11:23:38;31.70;59.60
19920;DHT22;10122;50.074;19.920;2022-07-21T11:26:04;31.80;65.50
19920;DHT22;10122;50.074;19.920;2022-07-21T11:28:30;31.70;59.90
19920;DHT22;10122;50.074;19.920;2022-07-21T11:31:10;31.70;63.60
19920;DHT22;10122;50.074;19.920;2022-07-21T11:33:41;31.80;59.00
19920;DHT22;10122;50.074;19.920;2022-07-21T11:36:07;31.90;59.50
19920;DHT22;10122;50.074;19.920;2022-07-21T11:38:33;31.90;57.70
19920;DHT22;10122;50.074;19.920;2022-07-21T11:41:16;31.90;58.90
19920;DHT22;10122;50.074;19.920;2022-07-21T11:43:43;31.90;59.80
19920;DHT22;10122;50.074;19.920;2022-07-21T11:46:09;31.90;62.00
19920;DHT22;10122;50.074;19.920;2022-07-21T11:48:35;31.90;58.50
19920;DHT22;10122;50.074;19.920;2022-07-21T11:51:01;31.80;58.50
19920;DHT22;10122;50.074;19.920;2022-07-21T11:53:28;31.70;60.10
19920;DHT22;10122;50.074;19.920;2022-07-21T11:55:54;31.70;58.70
19920;DHT22;10122;50.074;19.920;2022-07-21T11:58:20;31.60;57.50
19920;DHT22;10122;50.074;19.920;2022-07-21T12:00:46;31.70;56.80
19920;DHT22;10122;50.074;19.920;2022-07-21T12:03:12;31.90;62.10
19920;DHT22;10122;50.074;19.920;2022-07-21T12:05:42;31.90;59.50
19920;DHT22;10122;50.074;19.920;2022-07-21T12:08:08;31.90;58.90
19920;DHT22;10122;50.074;19.920;2022-07-21T12:10:34;32.00;58.50
19920;DHT22;10122;50.074;19.920;2022-07-21T12:13:02;32.00;56.60
19920;DHT22;10122;50.074;19.920;2022-07-21T12:15:31;32.00;57.10
19920;DHT22;10122;50.074;19.920;2022-07-21T12:18:04;32.00;55.70
19920;DHT22;10122;50.074;19.920;2022-07-21T12:22:59;32.30;55.80
19920;DHT22;10122;50.074;19.920;2022-07-21T12:25:32;32.30;54.60
19920;DHT22;10122;50.074;19.920;2022-07-21T12:27:59;32.30;56.90
19920;DHT22;10122;50.074;19.920;2022-07-21T12:30:44;32.30;55.10
19920;DHT22;10122;50.074;19.920;2022-07-21T12:33:13;32.20;57.50
19920;DHT22;10122;50.074;19.920;2022-07-21T12:35:42;31.90;53.60
19920;DHT22;10122;50.074;19.920;2022-07-21T12:38:18;31.90;56.90
19920;DHT22;10122;50.074;19.920;2022-07-21T12:40:49;31.90;53.80
19920;DHT22;10122;50.074;19.920;2022-07-21T12:43:20;31.70;54.20
19920;DHT22;10122;50.074;19.920;2022-07-21T12:46:00;31.80;57.80
19920;DHT22;10122;50.074;19.920;2022-07-21T12:48:33;31.90;57.90
19920;DHT22;10122;50.074;19.920;2022-07-21T12:51:12;31.90;54.10
19920;DHT22;10122;50.074;19.920;2022-07-21T12:56:06;32.00;55.50
19920;DHT22;10122;50.074;19.920;2022-07-21T12:58:32;32.10;56.30
19920;DHT22;10122;50.074;19.920;2022-07-21T13:00:58;32.10;57.60
19920;DHT22;10122;50.074;19.920;2022-07-21T13:03:27;32.10;60.80
19920;DHT22;10122;50.074;19.920;2022-07-21T13:05:53;32.20;55.60
19920;DHT22;10122;50.074;19.920;2022-07-21T13:08:19;32.20;55.00
19920;DHT22;10122;50.074;19.920;2022-07-21T13:10:45;32.30;54.30
19920;DHT22;10122;50.074;19.920;2022-07-21T13:13:10;32.20;59.90
19920;DHT22;10122;50.074;19.920;2022-07-21T13:15:36;32.30;55.40
19920;DHT22;10122;50.074;19.920;2022-07-21T13:18:02;32.20;54.20
19920;DHT22;10122;50.074;19.920;2022-07-21T13:20:27;32.30;56.60
19920;DHT22;10122;50.074;19.920;2022-07-21T13:22:53;32.30;54.50
19920;DHT22;10122;50.074;19.920;2022-07-21T13:25:19;32.40;57.40
19920;DHT22;10122;50.074;19.920;2022-07-21T13:27:44;32.60;56.50
19920;DHT22;10122;50.074;19.920;2022-07-21T13:30:11;32.60;55.00
19920;DHT22;10122;50.074;19.920;2022-07-21T13:32:36;32.70;57.00
19920;DHT22;10122;50.074;19.920;2022-07-21T13:35:04;32.60;56.10
19920;DHT22;10122;50.074;19.920;2022-07-21T13:37:30;32.60;56.60
19920;DHT22;10122;50.074;19.920;2022-07-21T13:39:55;32.50;54.70
19920;DHT22;10122;50.074;19.920;2022-07-21T13:42:21;32.40;54.40
19920;DHT22;10122;50.074;19.920;2022-07-21T13:44:47;32.40;57.50
19920;DHT22;10122;50.074;19.920;2022-07-21T13:47:12;32.50;56.20
19920;DHT22;10122;50.074;19.920;2022-07-21T13:49:38;32.60;56.10
19920;DHT22;10122;50.074;19.920;2022-07-21T13:52:04;32.50;55.80
19920;DHT22;10122;50.074;19.920;2022-07-21T13:54:29;32.50;54.60
19920;DHT22;10122;50.074;19.920;2022-07-21T13:56:55;32.60;56.00
19920;DHT22;10122;50.074;19.920;2022-07-21T13:59:22;32.60;54.00
19920;DHT22;10122;50.074;19.920;2022-07-21T14:01:48;32.60;56.40
19920;DHT22;10122;50.074;19.920;2022-07-21T14:04:14;32.70;58.40
19920;DHT22;10122;50.074;19.920;2022-07-21T14:06:39;32.70;55.60
19920;DHT22;10122;50.074;19.920;2022-07-21T14:09:05;32.80;56.20
19920;DHT22;10122;50.074;19.920;2022-07-21T14:11:31;32.70;53.80
19920;DHT22;10122;50.074;19.920;2022-07-21T14:13:57;32.80;53.80
19920;DHT22;10122;50.074;19.920;2022-07-21T14:16:22;32.80;52.20
19920;DHT22;10122;50.074;19.920;2022-07-21T14:18:48;32.60;55.90
19920;DHT22;10122;50.074;19.920;2022-07-21T14:21:14;32.60;55.80
19920;DHT22;10122;50.074;19.920;2022-07-21T14:23:40;32.60;54.60
19920;DHT22;10122;50.074;19.920;2022-07-21T14:26:06;32.60;53.90
19920;DHT22;10122;50.074;19.920;2022-07-21T14:28:32;32.60;51.90
19920;DHT22;10122;50.074;19.920;2022-07-21T14:30:57;32.60;52.80
19920;DHT22;10122;50.074;19.920;2022-07-21T14:33:24;32.60;51.80
19920;DHT22;10122;50.074;19.920;2022-07-21T14:35:49;32.50;53.50
19920;DHT22;10122;50.074;19.920;2022-07-21T14:38:15;32.50;53.80
19920;DHT22;10122;50.074;19.920;2022-07-21T14:40:43;32.40;53.60
19920;DHT22;10122;50.074;19.920;2022-07-21T14:43:08;32.40;52.70
19920;DHT22;10122;50.074;19.920;2022-07-21T14:45:34;32.40;52.70
19920;DHT22;10122;50.074;19.920;2022-07-21T14:48:00;32.30;53.30
19920;DHT22;10122;50.074;19.920;2022-07-21T14:50:27;32.30;54.30
19920;DHT22;10122;50.074;19.920;2022-07-21T14:52:57;32.30;53.10
19920;DHT22;10122;50.074;19.920;2022-07-21T14:55:24;32.40;55.00
19920;DHT22;10122;50.074;19.920;2022-07-21T14:57:51;32.50;53.60
19920;DHT22;10122;50.074;19.920;2022-07-21T15:00:17;32.40;56.00
19920;DHT22;10122;50.074;19.920;2022-07-21T15:02:43;32.40;54.10
19920;DHT22;10122;50.074;19.920;2022-07-21T15:05:09;32.50;54.80
19920;DHT22;10122;50.074;19.920;2022-07-21T15:07:35;32.50;53.40
19920;DHT22;10122;50.074;19.920;2022-07-21T15:10:00;32.40;54.20
19920;DHT22;10122;50.074;19.920;2022-07-21T15:12:26;32.40;55.40
19920;DHT22;10122;50.074;19.920;2022-07-21T15:14:52;32.40;54.80
19920;DHT22;10122;50.074;19.920;2022-07-21T15:17:18;32.30;56.10
19920;DHT22;10122;50.074;19.920;2022-07-21T15:19:44;32.30;55.00
19920;DHT22;10122;50.074;19.920;2022-07-21T15:22:18;32.30;55.30
19920;DHT22;10122;50.074;19.920;2022-07-21T15:24:44;32.30;55.00
19920;DHT22;10122;50.074;19.920;2022-07-21T15:27:09;32.30;55.40
19920;DHT22;10122;50.074;19.920;2022-07-21T15:29:35;32.20;56.70
19920;DHT22;10122;50.074;19.920;2022-07-21T15:32:03;32.10;54.80
19920;DHT22;10122;50.074;19.920;2022-07-21T15:34:29;32.00;55.20
19920;DHT22;10122;50.074;19.920;2022-07-21T15:36:54;32.00;55.10
19920;DHT22;10122;50.074;19.920;2022-07-21T15:39:20;32.10;55.00
19920;DHT22;10122;50.074;19.920;2022-07-21T15:41:47;32.00;54.00
19920;DHT22;10122;50.074;19.920;2022-07-21T15:44:13;31.80;55.40
19920;DHT22;10122;50.074;19.920;2022-07-21T15:46:39;31.80;54.40
19920;DHT22;10122;50.074;19.920;2022-07-21T15:49:07;31.90;55.20
19920;DHT22;10122;50.074;19.920;2022-07-21T15:51:33;32.00;54.40